createdAt,value
2018-03-07T00:01:35.270Z,23.67
2018-03-07T00:04:01.953Z,23.23
2018-03-07T00:06:28.812Z,23.60
2018-03-07T00:08:55.507Z,25.40
2018-03-07T00:11:22.154Z,24.70
2018-03-07T00:13:48.789Z,25.50
2018-03-07T00:16:15.496Z,25.30
2018-03-07T00:18:42.553Z,26.00
2018-03-07T00:21:09.193Z,24.73
2018-03-07T00:23:35.878Z,24.37
2018-03-07T00:26:02.513Z,26.80
2018-03-07T00:28:29.209Z,26.20
2018-03-07T00:30:55.875Z,25.73
2018-03-07T00:33:22.514Z,25.70
2018-03-07T00:35:49.157Z,24.83
2018-03-07T00:38:15.868Z,25.40
2018-03-07T00:40:42.503Z,25.30
2018-03-07T00:43:09.144Z,25.40
2018-03-07T00:45:35.784Z,26.33
2018-03-07T00:48:02.501Z,24.27
2018-03-07T00:50:29.238Z,25.13
2018-03-07T00:52:55.954Z,26.60
2018-03-07T00:55:22.609Z,24.80
2018-03-07T00:57:49.257Z,24.77
2018-03-07T01:00:16.135Z,23.80
2018-03-07T01:02:43.006Z,25.23
2018-03-07T01:05:09.665Z,23.37
2018-03-07T01:07:36.614Z,24.43
2018-03-07T01:10:03.244Z,24.87
2018-03-07T01:12:29.886Z,24.40
2018-03-07T01:14:56.544Z,23.63
2018-03-07T01:17:23.210Z,24.50
2018-03-07T01:19:49.886Z,24.00
2018-03-07T01:22:16.562Z,23.70
2018-03-07T01:24:43.249Z,22.90
2018-03-07T01:27:09.975Z,23.47
2018-03-07T01:29:37.443Z,24.50
2018-03-07T01:32:04.065Z,25.47
2018-03-07T01:34:30.746Z,25.33
2018-03-07T01:36:57.402Z,26.00
2018-03-07T01:39:24.077Z,27.70
2018-03-07T01:41:50.704Z,25.53
2018-03-07T01:44:17.375Z,27.07
2018-03-07T01:46:44.054Z,26.00
2018-03-07T01:49:11.647Z,25.20
2018-03-07T01:51:44.032Z,26.63
2018-03-07T01:54:10.677Z,26.87
2018-03-07T01:56:37.386Z,26.57
2018-03-07T01:59:04.307Z,26.03
2018-03-07T02:01:31.029Z,25.30
2018-03-07T02:03:57.709Z,26.27
2018-03-07T02:06:24.334Z,26.40
2018-03-07T02:08:50.973Z,25.80
2018-03-07T02:11:17.692Z,25.20
2018-03-07T02:13:44.335Z,26.23
2018-03-07T02:16:10.986Z,25.83
2018-03-07T02:18:37.645Z,23.80
2018-03-07T02:21:04.280Z,25.63
2018-03-07T02:23:30.964Z,26.53
2018-03-07T02:25:57.584Z,26.40
2018-03-07T02:28:24.215Z,25.63
2018-03-07T02:30:50.870Z,26.57
2018-03-07T02:33:17.498Z,25.63
2018-03-07T02:35:44.242Z,25.80
2018-03-07T02:38:10.984Z,23.83
2018-03-07T02:40:37.640Z,25.60
2018-03-07T02:43:04.277Z,25.50
2018-03-07T02:45:30.936Z,26.53
2018-03-07T02:47:57.591Z,23.87
2018-03-07T02:50:24.234Z,23.40
2018-03-07T02:52:50.919Z,24.20
2018-03-07T02:55:17.586Z,22.80
2018-03-07T02:57:44.357Z,24.13
2018-03-07T03:00:11.047Z,23.90
2018-03-07T03:02:37.700Z,24.53
2018-03-07T03:05:04.347Z,24.17
2018-03-07T03:07:30.998Z,26.07
2018-03-07T03:09:57.647Z,24.60
2018-03-07T03:12:24.280Z,23.40
2018-03-07T03:14:51.005Z,24.47
2018-03-07T03:17:17.679Z,24.63
2018-03-07T03:19:44.397Z,25.03
2018-03-07T03:22:11.040Z,24.87
2018-03-07T03:24:37.758Z,25.43
2018-03-07T03:27:04.450Z,24.90
2018-03-07T03:29:31.118Z,26.07
2018-03-07T03:31:57.788Z,25.77
2018-03-07T03:34:24.439Z,25.57
2018-03-07T03:36:51.116Z,23.93
2018-03-07T03:39:17.789Z,24.47
2018-03-07T03:41:44.589Z,26.10
2018-03-07T03:44:11.281Z,25.97
2018-03-07T03:46:38.022Z,26.07
2018-03-07T03:49:04.731Z,24.47
2018-03-07T03:51:31.483Z,24.90
2018-03-07T03:53:58.221Z,25.17
2018-03-07T03:56:24.854Z,25.17
2018-03-07T03:58:52.068Z,23.87
2018-03-07T04:01:18.774Z,24.03
2018-03-07T04:03:45.441Z,25.20
2018-03-07T04:06:12.104Z,25.80
2018-03-07T04:08:38.747Z,25.33
2018-03-07T04:11:06.061Z,26.43
2018-03-07T04:13:32.752Z,25.20
2018-03-07T04:15:59.364Z,27.23
2018-03-07T04:18:26.035Z,24.20
2018-03-07T04:20:52.725Z,23.93
2018-03-07T04:23:19.349Z,22.70
2018-03-07T04:25:46.093Z,24.63
2018-03-07T04:28:12.761Z,23.70
2018-03-07T04:30:39.487Z,23.13
2018-03-07T04:33:06.166Z,23.90
2018-03-07T04:35:32.859Z,24.33
2018-03-07T04:37:59.519Z,24.17
2018-03-07T04:40:26.232Z,25.53
2018-03-07T04:42:52.898Z,25.57
2018-03-07T04:45:19.531Z,26.03
2018-03-07T04:47:46.171Z,25.23
2018-03-07T04:50:12.880Z,25.37
2018-03-07T04:52:39.655Z,26.53
2018-03-07T04:55:06.396Z,22.97
2018-03-07T04:57:33.055Z,24.87
2018-03-07T04:59:59.785Z,26.63
2018-03-07T05:02:26.464Z,25.10
2018-03-07T05:04:53.093Z,24.27
2018-03-07T05:07:19.741Z,24.47
2018-03-07T05:09:46.401Z,24.17
2018-03-07T05:12:13.058Z,22.20
2018-03-07T05:14:39.736Z,21.00
2018-03-07T05:17:06.497Z,22.40
2018-03-07T05:19:33.251Z,21.70
2018-03-07T05:22:00.006Z,20.23
2018-03-07T05:24:26.711Z,19.97
2018-03-07T05:26:53.351Z,21.17
2018-03-07T05:29:20.042Z,19.53
2018-03-07T05:31:46.689Z,17.40
2018-03-07T05:34:13.438Z,16.37
2018-03-07T05:36:40.139Z,17.70
2018-03-07T05:39:06.869Z,17.60
2018-03-07T05:41:33.566Z,18.23
2018-03-07T05:44:00.396Z,18.97
2018-03-07T05:46:27.041Z,18.27
2018-03-07T05:48:53.801Z,18.10
2018-03-07T05:51:20.449Z,18.90
2018-03-07T05:53:47.383Z,20.00
2018-03-07T05:56:14.096Z,18.20
2018-03-07T05:58:40.828Z,17.00
2018-03-07T06:01:07.503Z,19.47
2018-03-07T06:03:34.208Z,18.63
2018-03-07T06:06:00.950Z,19.13
2018-03-07T06:08:27.637Z,20.17
2018-03-07T06:10:54.335Z,20.00
2018-03-07T06:13:20.943Z,20.03
2018-03-07T06:15:47.583Z,19.43
2018-03-07T06:18:14.671Z,18.93
2018-03-07T06:20:41.383Z,19.37
2018-03-07T06:23:08.020Z,18.63
2018-03-07T06:25:34.665Z,18.80
2018-03-07T06:28:01.362Z,19.80
2018-03-07T06:30:28.133Z,18.13
2018-03-07T06:32:54.804Z,17.30
2018-03-07T06:35:21.455Z,16.40
2018-03-07T06:37:48.099Z,15.50
2018-03-07T06:40:14.878Z,14.70
2018-03-07T06:42:41.675Z,16.43
2018-03-07T06:45:08.415Z,14.13
2018-03-07T06:47:35.163Z,14.40
2018-03-07T06:50:01.980Z,13.20
2018-03-07T06:52:28.795Z,13.13
2018-03-07T06:54:55.554Z,13.43
2018-03-07T06:57:22.209Z,12.97
2018-03-07T06:59:48.846Z,11.77
2018-03-07T07:02:15.647Z,11.60
2018-03-07T07:04:42.344Z,13.20
2018-03-07T07:07:09.059Z,13.17
2018-03-07T07:09:36.615Z,10.90
2018-03-07T07:12:03.452Z,11.03
2018-03-07T07:14:30.203Z,10.80
2018-03-07T07:16:56.895Z,11.17
2018-03-07T07:19:24.262Z,10.30
2018-03-07T07:21:51.086Z,9.93
2018-03-07T07:24:18.315Z,10.57
2018-03-07T07:26:45.613Z,9.90
2018-03-07T07:29:13.503Z,10.10
2018-03-07T07:31:40.220Z,9.90
2018-03-07T07:34:07.857Z,9.87
2018-03-07T07:36:34.669Z,10.60
2018-03-07T07:39:01.393Z,9.90
2018-03-07T07:41:28.063Z,9.43
2018-03-07T07:43:54.721Z,9.53
2018-03-07T07:46:21.371Z,8.87
2018-03-07T07:48:48.088Z,9.07
2018-03-07T07:51:14.801Z,10.10
2018-03-07T07:53:41.627Z,10.77
2018-03-07T07:56:09.027Z,9.70
2018-03-07T07:58:35.787Z,8.27
2018-03-07T08:01:02.630Z,7.80
2018-03-07T08:03:29.400Z,7.87
2018-03-07T08:05:56.153Z,6.73
2018-03-07T08:08:22.788Z,6.47
2018-03-07T08:10:49.413Z,5.90
2018-03-07T08:13:16.188Z,5.37
2018-03-07T08:15:42.893Z,5.67
2018-03-07T08:18:09.707Z,5.50
2018-03-07T08:20:36.597Z,5.00
2018-03-07T08:23:03.253Z,4.00
2018-03-07T08:25:29.934Z,4.40
2018-03-07T08:27:56.607Z,4.60
2018-03-07T08:30:23.790Z,4.40
2018-03-07T08:32:50.429Z,3.70
2018-03-07T08:35:17.065Z,3.70
2018-03-07T08:37:44.318Z,3.00
2018-03-07T08:40:11.033Z,3.40
2018-03-07T08:42:37.831Z,3.37
2018-03-07T08:45:04.491Z,3.30
2018-03-07T08:47:31.152Z,3.53
2018-03-07T08:49:57.816Z,3.33
2018-03-07T08:52:24.466Z,2.90
2018-03-07T08:54:51.145Z,3.10
2018-03-07T08:57:17.802Z,2.87
2018-03-07T08:59:44.514Z,3.30
2018-03-07T09:02:11.212Z,3.00
2018-03-07T09:04:37.908Z,2.43
2018-03-07T09:07:04.650Z,2.70
2018-03-07T09:09:31.297Z,3.10
2018-03-07T09:11:58.040Z,2.93
2018-03-07T09:14:24.687Z,2.43
2018-03-07T09:16:51.310Z,2.40
2018-03-07T09:19:17.943Z,2.50
2018-03-07T09:21:44.582Z,1.77
2018-03-07T09:24:11.197Z,2.13
2018-03-07T09:26:37.859Z,1.97
2018-03-07T09:29:04.546Z,2.20
2018-03-07T09:31:31.197Z,1.97
2018-03-07T09:33:57.885Z,1.70
2018-03-07T09:36:24.515Z,2.00
2018-03-07T09:38:51.233Z,1.90
2018-03-07T09:41:17.867Z,2.00
2018-03-07T09:43:44.512Z,1.97
2018-03-07T09:46:12.123Z,2.00
2018-03-07T09:48:38.743Z,1.87
2018-03-07T09:51:05.486Z,1.70
2018-03-07T09:53:32.172Z,1.40
2018-03-07T09:55:58.857Z,1.30
2018-03-07T09:58:25.561Z,2.03
2018-03-07T10:00:52.215Z,1.50
2018-03-07T10:03:18.840Z,1.50
2018-03-07T10:05:45.556Z,1.80
2018-03-07T10:08:12.287Z,1.80
2018-03-07T10:10:38.909Z,1.73
2018-03-07T10:13:05.599Z,1.87
2018-03-07T10:15:32.319Z,1.37
2018-03-07T10:17:58.947Z,1.53
2018-03-07T10:20:25.664Z,1.47
2018-03-07T10:22:52.387Z,1.60
2018-03-07T10:25:19.054Z,1.50
2018-03-07T10:27:45.692Z,1.17
2018-03-07T10:30:12.774Z,1.13
2018-03-07T10:32:39.460Z,1.20
2018-03-07T10:35:06.106Z,1.67
2018-03-07T10:37:32.845Z,1.60
2018-03-07T10:39:59.917Z,1.50
2018-03-07T10:42:26.686Z,1.37
2018-03-07T10:44:53.344Z,1.30
2018-03-07T10:47:20.003Z,1.27
2018-03-07T10:49:46.657Z,1.40
2018-03-07T10:52:13.312Z,1.30
2018-03-07T10:54:39.930Z,1.10
2018-03-07T10:57:06.589Z,1.20
2018-03-07T10:59:33.896Z,0.90
2018-03-07T11:02:00.534Z,1.23
2018-03-07T11:04:27.218Z,1.10
2018-03-07T11:06:53.870Z,1.40
2018-03-07T11:09:20.550Z,1.20
2018-03-07T11:11:47.258Z,1.33
2018-03-07T11:14:16.768Z,1.50
2018-03-07T11:16:43.402Z,1.50
2018-03-07T11:19:10.079Z,1.20
2018-03-07T11:21:36.981Z,1.50
2018-03-07T11:24:03.686Z,1.20
2018-03-07T11:26:30.403Z,1.47
2018-03-07T11:28:57.166Z,1.30
2018-03-07T11:31:23.989Z,1.80
2018-03-07T11:33:50.798Z,1.77
2018-03-07T11:36:17.462Z,1.80
2018-03-07T11:38:44.101Z,1.90
2018-03-07T11:41:10.741Z,1.43
2018-03-07T11:43:38.198Z,1.80
2018-03-07T11:46:04.849Z,1.20
2018-03-07T11:48:31.964Z,1.13
2018-03-07T11:50:58.658Z,1.10
2018-03-07T11:53:25.344Z,1.40
2018-03-07T11:55:52.203Z,1.50
2018-03-07T11:58:18.896Z,1.00
2018-03-07T12:00:45.585Z,1.20
2018-03-07T12:03:12.245Z,1.27
2018-03-07T12:05:38.976Z,0.90
2018-03-07T12:08:05.613Z,0.83
2018-03-07T12:10:32.379Z,0.67
2018-03-07T12:12:59.618Z,0.77
2018-03-07T12:15:26.309Z,0.73
2018-03-07T12:17:53.038Z,1.20
2018-03-07T12:20:19.661Z,0.70
2018-03-07T12:22:46.291Z,0.80
2018-03-07T12:25:13.642Z,0.90
2018-03-07T12:27:40.308Z,1.00
2018-03-07T12:30:07.012Z,0.90
2018-03-07T12:32:33.994Z,0.60
2018-03-07T12:35:00.755Z,0.77
2018-03-07T12:37:27.496Z,1.07
2018-03-07T12:39:54.237Z,0.90
2018-03-07T12:42:20.891Z,0.90
2018-03-07T12:44:47.556Z,0.90
2018-03-07T12:47:14.188Z,0.80
2018-03-07T12:49:40.850Z,0.70
2018-03-07T12:52:07.544Z,1.00
2018-03-07T12:54:34.230Z,0.80
2018-03-07T12:57:00.892Z,0.70
2018-03-07T12:59:27.767Z,1.10
2018-03-07T13:01:54.503Z,1.03
2018-03-07T13:04:21.147Z,1.17
2018-03-07T13:06:47.913Z,1.10
2018-03-07T13:09:14.551Z,0.80
2018-03-07T13:11:41.199Z,1.27
2018-03-07T13:14:07.996Z,1.00
2018-03-07T13:16:34.732Z,1.13
2018-03-07T13:19:01.476Z,0.90
2018-03-07T13:21:28.296Z,1.13
2018-03-07T13:23:55.143Z,1.30
2018-03-07T13:26:21.966Z,0.97
2018-03-07T13:28:48.678Z,1.23
2018-03-07T13:31:15.401Z,0.80
2018-03-07T13:33:42.055Z,0.93
2018-03-07T13:36:08.717Z,2.90
2018-03-07T13:38:35.358Z,1.00
2018-03-07T13:41:02.776Z,1.30
2018-03-07T13:43:29.424Z,0.80
2018-03-07T13:45:56.207Z,0.70
2018-03-07T13:48:22.874Z,1.00
2018-03-07T13:50:49.688Z,0.90
2018-03-07T13:53:16.507Z,0.80
2018-03-07T13:55:43.426Z,1.13
2018-03-07T13:58:10.078Z,0.80
2018-03-07T14:00:36.880Z,0.70
2018-03-07T14:03:03.810Z,0.70
2018-03-07T14:05:30.530Z,0.90
2018-03-07T14:07:57.376Z,0.73
2018-03-07T14:10:24.252Z,0.70
2018-03-07T14:12:50.998Z,0.70
2018-03-07T14:15:17.638Z,0.90
2018-03-07T14:17:44.316Z,0.80
2018-03-07T14:20:11.788Z,0.97
2018-03-07T14:22:38.613Z,0.77
2018-03-07T14:25:05.319Z,0.97
2018-03-07T14:27:32.041Z,0.90
2018-03-07T14:29:58.674Z,1.27
2018-03-07T14:32:25.325Z,1.40
2018-03-07T14:34:52.345Z,0.80
2018-03-07T14:37:19.172Z,1.10
2018-03-07T14:39:45.915Z,0.83
2018-03-07T14:42:12.529Z,0.97
2018-03-07T14:44:39.188Z,0.90
2018-03-07T14:47:06.225Z,0.80
2018-03-07T14:49:32.929Z,0.77
2018-03-07T14:51:59.769Z,0.90
2018-03-07T14:54:26.686Z,0.97
2018-03-07T14:56:53.725Z,1.03
2018-03-07T14:59:20.519Z,0.90
2018-03-07T15:01:47.532Z,1.10
2018-03-07T15:04:14.306Z,0.63
2018-03-07T15:06:41.033Z,0.77
2018-03-07T15:09:07.901Z,1.00
2018-03-07T15:11:34.646Z,1.00
2018-03-07T15:14:01.371Z,0.90
2018-03-07T15:16:28.049Z,0.77
2018-03-07T15:18:54.751Z,0.60
2018-03-07T15:21:21.442Z,0.70
2018-03-07T15:23:48.057Z,0.80
2018-03-07T15:26:14.678Z,0.80
2018-03-07T15:28:41.437Z,0.80
2018-03-07T15:31:08.217Z,0.90
2018-03-07T15:33:34.906Z,0.50
2018-03-07T15:36:01.570Z,0.80
2018-03-07T15:38:28.239Z,0.83
2018-03-07T15:40:54.964Z,0.70
2018-03-07T15:43:21.645Z,0.70
2018-03-07T15:45:48.360Z,0.60
2018-03-07T15:48:15.111Z,0.60
2018-03-07T15:50:41.814Z,0.70
2018-03-07T15:53:08.468Z,0.60
2018-03-07T15:55:35.131Z,0.90
2018-03-07T15:58:01.865Z,0.87
2018-03-07T16:00:28.645Z,1.47
2018-03-07T16:02:55.299Z,0.97
2018-03-07T16:05:22.132Z,1.27
2018-03-07T16:07:48.801Z,1.03
2018-03-07T16:10:15.434Z,0.70
2018-03-07T16:12:42.069Z,0.90
2018-03-07T16:15:08.728Z,1.00
2018-03-07T16:17:35.365Z,1.10
2018-03-07T16:20:02.007Z,1.10
2018-03-07T16:22:28.630Z,1.00
2018-03-07T16:24:55.417Z,1.10
2018-03-07T16:27:22.085Z,1.10
2018-03-07T16:29:48.816Z,1.10
2018-03-07T16:32:15.546Z,1.10
2018-03-07T16:34:42.271Z,1.87
2018-03-07T16:37:08.921Z,1.47
2018-03-07T16:39:35.568Z,1.17
2018-03-07T16:42:02.220Z,1.00
2018-03-07T16:44:28.842Z,1.30
2018-03-07T16:46:55.482Z,1.20
2018-03-07T16:49:22.206Z,1.20
2018-03-07T16:51:48.861Z,1.40
2018-03-07T16:54:15.494Z,1.33
2018-03-07T16:56:42.168Z,1.60
2018-03-07T16:59:08.834Z,1.50
2018-03-07T17:01:35.582Z,1.20
2018-03-07T17:04:02.326Z,2.10
2018-03-07T17:06:29.525Z,1.90
2018-03-07T17:08:56.394Z,2.40
2018-03-07T17:11:23.049Z,1.50
2018-03-07T17:13:49.775Z,1.50
2018-03-07T17:16:16.415Z,1.63
2018-03-07T17:18:43.049Z,1.80
2018-03-07T17:21:09.666Z,2.50
2018-03-07T17:23:36.301Z,2.33
2018-03-07T17:26:03.041Z,2.10
2018-03-07T17:28:29.684Z,2.33
2018-03-07T17:30:56.381Z,2.10
2018-03-07T17:33:23.173Z,2.47
2018-03-07T17:35:49.853Z,2.87
2018-03-07T17:38:16.567Z,3.50
2018-03-07T17:40:43.211Z,3.43
2018-03-07T17:43:09.894Z,3.90
2018-03-07T17:45:36.531Z,2.37
2018-03-07T17:48:03.177Z,1.90
2018-03-07T17:50:30.351Z,2.13
2018-03-07T17:52:57.021Z,2.23
2018-03-07T17:55:23.672Z,2.10
2018-03-07T17:57:50.371Z,2.30
2018-03-07T18:00:17.191Z,2.17
2018-03-07T18:02:43.842Z,3.17
2018-03-07T18:05:10.714Z,3.03
2018-03-07T18:07:37.468Z,2.90
2018-03-07T18:10:04.288Z,2.83
2018-03-07T18:12:31.037Z,2.83
2018-03-07T18:14:58.106Z,2.97
2018-03-07T18:17:25.118Z,2.47
2018-03-07T18:19:52.026Z,2.70
2018-03-07T18:22:19.142Z,2.60
2018-03-07T18:24:46.054Z,2.60
2018-03-07T18:27:12.757Z,3.33
2018-03-07T18:29:39.628Z,3.00
2018-03-07T18:32:06.410Z,3.10
2018-03-07T18:34:33.150Z,3.10
2018-03-07T18:36:59.795Z,3.37
2018-03-07T18:39:26.428Z,2.30
2018-03-07T18:41:53.107Z,2.47
2018-03-07T18:44:19.869Z,2.80
2018-03-07T18:46:46.475Z,2.40
2018-03-07T18:49:13.212Z,2.50
2018-03-07T18:51:39.931Z,2.37
2018-03-07T18:54:06.740Z,2.97
2018-03-07T18:56:33.380Z,3.10
2018-03-07T18:59:00.031Z,3.43
2018-03-07T19:01:26.850Z,3.00
2018-03-07T19:03:53.600Z,2.67
2018-03-07T19:06:20.272Z,3.27
2018-03-07T19:08:47.101Z,3.13
2018-03-07T19:11:13.728Z,3.30
2018-03-07T19:13:40.378Z,3.23
2018-03-07T19:16:06.997Z,4.57
2018-03-07T19:18:37.635Z,4.47
2018-03-07T19:21:04.334Z,7.37
2018-03-07T19:23:30.991Z,4.10
2018-03-07T19:25:57.668Z,3.90
2018-03-07T19:28:24.305Z,2.80
2018-03-07T19:30:50.941Z,3.43
2018-03-07T19:33:17.659Z,3.20
2018-03-07T19:35:44.462Z,2.63
2018-03-07T19:38:11.138Z,2.60
2018-03-07T19:40:37.805Z,2.70
2018-03-07T19:43:04.547Z,3.17
2018-03-07T19:45:31.441Z,2.50
2018-03-07T19:47:58.149Z,2.90
2018-03-07T19:50:24.786Z,3.40
2018-03-07T19:52:51.762Z,2.93
2018-03-07T19:55:18.515Z,2.27
2018-03-07T19:57:45.669Z,2.87
2018-03-07T20:00:12.568Z,3.00
2018-03-07T20:02:39.362Z,2.70
2018-03-07T20:05:06.144Z,2.70
2018-03-07T20:07:32.916Z,2.70
2018-03-07T20:09:59.556Z,2.57
2018-03-07T20:12:26.201Z,2.90
2018-03-07T20:14:53.021Z,2.60
2018-03-07T20:17:19.650Z,3.20
2018-03-07T20:19:46.338Z,2.47
2018-03-07T20:22:13.003Z,2.60
2018-03-07T20:24:39.830Z,2.70
2018-03-07T20:27:06.469Z,2.80
2018-03-07T20:29:33.336Z,2.80
2018-03-07T20:32:00.128Z,2.23
2018-03-07T20:34:26.795Z,2.30
2018-03-07T20:36:53.786Z,2.40
2018-03-07T20:39:20.540Z,2.40
2018-03-07T20:41:47.360Z,2.20
2018-03-07T20:44:14.458Z,2.40
2018-03-07T20:46:41.222Z,2.50
2018-03-07T20:49:08.028Z,2.37
2018-03-07T20:51:34.716Z,2.00
2018-03-07T20:54:01.337Z,2.63
2018-03-07T20:56:28.013Z,1.97
2018-03-07T20:58:54.882Z,2.17
2018-03-07T21:01:21.908Z,2.20
2018-03-07T21:03:48.592Z,2.10
2018-03-07T21:06:15.395Z,2.37
2018-03-07T21:08:42.218Z,1.90
2018-03-07T21:11:10.358Z,2.23
2018-03-07T21:13:37.369Z,1.87
2018-03-07T21:16:04.682Z,2.40
2018-03-07T21:18:31.333Z,1.80
2018-03-07T21:20:58.001Z,2.03
2018-03-07T21:23:24.649Z,1.97
2018-03-07T21:25:51.429Z,1.90
2018-03-07T21:28:18.080Z,2.00
2018-03-07T21:30:44.739Z,2.47
2018-03-07T21:33:11.502Z,2.30
2018-03-07T21:35:38.149Z,2.23
2018-03-07T21:38:04.847Z,2.77
2018-03-07T21:40:31.540Z,2.33
2018-03-07T21:42:58.361Z,2.10
2018-03-07T21:45:26.002Z,2.17
2018-03-07T21:47:52.718Z,2.50
2018-03-07T21:50:19.391Z,2.10
2018-03-07T21:52:46.205Z,2.70
2018-03-07T21:55:12.978Z,2.17
2018-03-07T21:57:39.616Z,2.23
2018-03-07T22:00:06.286Z,2.40
2018-03-07T22:02:32.974Z,2.13
2018-03-07T22:04:59.615Z,2.20
2018-03-07T22:07:26.263Z,2.50
2018-03-07T22:09:52.885Z,2.50
2018-03-07T22:12:19.779Z,2.20
2018-03-07T22:14:46.534Z,2.43
2018-03-07T22:17:13.144Z,2.90
2018-03-07T22:19:39.785Z,2.90
2018-03-07T22:22:06.387Z,2.63
2018-03-07T22:24:33.053Z,2.40
2018-03-07T22:26:59.692Z,2.30
2018-03-07T22:29:26.318Z,2.43
2018-03-07T22:31:52.970Z,2.47
2018-03-07T22:34:20.380Z,2.63
2018-03-07T22:36:47.045Z,2.20
2018-03-07T22:39:13.701Z,2.33
2018-03-07T22:41:40.324Z,2.27
2018-03-07T22:44:06.956Z,2.50
2018-03-07T22:46:40.040Z,2.60
2018-03-07T22:49:06.696Z,2.60
2018-03-07T22:51:33.349Z,2.60
2018-03-07T22:53:59.988Z,2.40
2018-03-07T22:56:26.619Z,2.70
2018-03-07T22:58:53.255Z,2.83
2018-03-07T23:01:19.880Z,2.80
2018-03-07T23:03:46.531Z,2.97
2018-03-07T23:06:13.360Z,2.47
2018-03-07T23:08:40.043Z,2.43
2018-03-07T23:11:06.702Z,2.60
2018-03-07T23:13:33.460Z,2.87
2018-03-07T23:16:00.509Z,2.60
2018-03-07T23:18:27.309Z,2.50
2018-03-07T23:20:53.961Z,2.40
2018-03-07T23:23:20.577Z,2.07
2018-03-07T23:25:47.220Z,2.17
2018-03-07T23:28:13.844Z,2.50
2018-03-07T23:30:40.489Z,2.50
2018-03-07T23:33:07.235Z,2.30
2018-03-07T23:35:34.655Z,2.47
2018-03-07T23:38:01.284Z,2.40
2018-03-07T23:40:28.031Z,2.40
2018-03-07T23:42:54.684Z,3.00
2018-03-07T23:45:21.283Z,2.27
2018-03-07T23:47:47.970Z,2.97
2018-03-07T23:50:14.607Z,3.20
2018-03-07T23:52:41.216Z,2.73
2018-03-07T23:55:07.910Z,2.80
2018-03-07T23:57:34.550Z,3.10
